Fort Hood, Texas
Current Conditions -  °F | °C
As of 7:56 AM on Saturday 22 Nov 2014 (Local Time) from KHLR Reporting Station
Overcast Overcast  
Wind Chill: 66°   Ceiling: 800
Heat Index: 66°   Visibility: 10mi
Dew Point: 62°   Wind: 12mph
Humidity: 87%   Direction: 130°SE
Pressure: 30.01"   Gusts: 21mph
Location:  31.2151°N, 97.7405°W
Report Text: KHLR 221356Z AUTO 13010G18KT 10SM OVC008 19/17 A3001 RMK AO2 CIG 006V011 SLP188 T01890167 $
Loading
Personal Weather Stations






























Interactive Weather Map New forecast layout! Learn more

10-Day Weather Forecast

Advertisements
Track Severe Weather on mobile